Bruceton Mills, West Virginia
Current Conditions -  °F | °C
As of 6:53 PM on Monday 24 Nov 2014 (Local Time) from KMGW Reporting Station
Clear Clear  
Wind Chill: 16°   Ceiling: Unl
Heat Index: 16°   Visibility: 10mi
Dew Point:   Wind: 10mph
Humidity: 41%   Direction: 230°SW
Pressure: 29.69"   Gusts: 22mph
Location:  39.66°N, 79.64°W
Report Text: KMGW 242353Z 23009G19KT 10SM CLR 16/03 A2969 RMK AO2 SLP050 T01610028 10217 20161 51044
Loading
Personal Weather Stations






























Interactive Weather Map New forecast layout! Learn more

10-Day Weather Forecast

Advertisements
Track Severe Weather on mobile